createdAt,value
2023-01-08T00:03:48.167Z,17.33
2023-01-08T00:08:50.049Z,17.05
2023-01-08T00:13:51.738Z,16.58
2023-01-08T00:18:53.472Z,19.25
2023-01-08T00:23:55.456Z,18.10
2023-01-08T00:28:57.325Z,17.10
2023-01-08T00:33:58.993Z,18.30
2023-01-08T00:39:01.083Z,16.25
2023-01-08T00:44:02.762Z,16.30
2023-01-08T00:49:04.638Z,14.52
2023-01-08T00:54:06.448Z,13.63
2023-01-08T00:59:08.206Z,15.87
2023-01-08T01:04:10.023Z,13.77
2023-01-08T01:09:12.268Z,15.97
2023-01-08T01:14:13.991Z,19.00
2023-01-08T01:19:17.090Z,13.80
2023-01-08T01:24:18.802Z,14.63
2023-01-08T01:29:20.488Z,15.57
2023-01-08T01:34:22.121Z,13.70
2023-01-08T01:39:23.945Z,16.27
2023-01-08T01:44:45.451Z,15.83
2023-01-08T01:49:55.845Z,14.43
2023-01-08T01:54:59.744Z,15.00
2023-01-08T02:00:04.896Z,13.93
2023-01-08T02:05:15.057Z,13.25
2023-01-08T02:10:38.689Z,12.90
2023-01-08T02:15:53.090Z,13.02
2023-01-08T02:21:01.549Z,13.63
2023-01-08T02:26:32.792Z,13.75
2023-01-08T02:31:38.545Z,13.63
2023-01-08T02:36:43.635Z,12.82
2023-01-08T02:42:07.250Z,12.75
2023-01-08T02:47:18.524Z,13.38
2023-01-08T02:52:23.415Z,13.20
2023-01-08T02:57:26.162Z,12.88
2023-01-08T03:02:32.989Z,12.82
2023-01-08T03:07:35.670Z,12.85
2023-01-08T03:13:01.722Z,14.52
2023-01-08T03:18:13.620Z,13.05
2023-01-08T03:23:17.760Z,12.82
2023-01-08T03:28:25.305Z,14.70
2023-01-08T03:33:30.333Z,13.45
2023-01-08T03:38:36.639Z,14.15
2023-01-08T03:43:38.674Z,14.13
2023-01-08T03:48:41.195Z,15.02
2023-01-08T03:58:44.843Z,12.57
2023-01-08T04:03:46.488Z,11.07
2023-01-08T04:08:48.926Z,12.70
2023-01-08T04:13:50.571Z,11.27
2023-01-08T04:18:52.291Z,11.52
2023-01-08T04:23:55.111Z,12.57
2023-01-08T04:28:56.817Z,11.77
2023-01-08T04:33:58.550Z,13.10
2023-01-08T04:39:00.287Z,12.65
2023-01-08T04:44:02.323Z,13.02
2023-01-08T04:49:03.979Z,12.88
2023-01-08T04:54:06.196Z,14.23
2023-01-08T04:59:08.038Z,13.18
2023-01-08T05:04:10.904Z,12.67
2023-01-08T05:14:14.719Z,11.07
2023-01-08T05:19:16.590Z,11.77
2023-01-08T05:24:18.263Z,12.70
2023-01-08T05:29:20.323Z,10.30
2023-01-08T05:34:21.946Z,10.03
2023-01-08T05:39:23.649Z,10.48
2023-01-08T05:44:25.391Z,10.65
2023-01-08T05:49:27.252Z,10.95
2023-01-08T05:54:28.912Z,13.03
2023-01-08T05:59:30.799Z,12.53
2023-01-08T06:04:32.430Z,11.52
2023-01-08T06:09:34.123Z,11.73
2023-01-08T06:14:35.825Z,9.70
2023-01-08T06:19:39.269Z,12.95
2023-01-08T06:24:40.993Z,11.93
2023-01-08T06:29:42.666Z,10.65
2023-01-08T06:34:44.344Z,10.07
2023-01-08T06:39:46.092Z,12.98
2023-01-08T06:44:47.782Z,10.35
2023-01-08T06:49:49.418Z,11.70
2023-01-08T06:54:51.211Z,11.85
2023-01-08T06:59:52.889Z,13.77
2023-01-08T07:04:54.733Z,11.77
2023-01-08T07:09:56.789Z,9.38
2023-01-08T07:14:58.464Z,11.25
2023-01-08T07:20:00.154Z,10.00
2023-01-08T07:25:02.030Z,8.47
2023-01-08T07:30:04.227Z,11.77
2023-01-08T07:35:06.124Z,12.20
2023-01-08T07:40:09.850Z,10.33
2023-01-08T07:45:11.719Z,9.57
2023-01-08T07:50:13.413Z,9.77
2023-01-08T07:55:15.325Z,10.68
2023-01-08T08:00:18.100Z,10.90
2023-01-08T08:05:19.860Z,11.37
2023-01-08T08:10:21.597Z,10.87
2023-01-08T08:15:23.213Z,11.95
2023-01-08T08:20:25.658Z,11.32
2023-01-08T08:25:27.362Z,12.85
2023-01-08T08:30:31.227Z,11.60
2023-01-08T08:35:34.439Z,15.55
2023-01-08T08:40:36.088Z,13.30
2023-01-08T08:45:37.807Z,12.40
2023-01-08T08:50:39.651Z,11.10
2023-01-08T08:55:41.262Z,12.68
2023-01-08T09:00:43.643Z,14.05
2023-01-08T09:05:45.612Z,11.43
2023-01-08T09:10:47.482Z,15.43
2023-01-08T09:15:49.264Z,12.87
2023-01-08T09:20:51.053Z,11.87
2023-01-08T09:25:59.507Z,12.05
2023-01-08T09:31:03.667Z,12.63
2023-01-08T09:36:10.672Z,13.93
2023-01-08T09:41:25.145Z,12.73
2023-01-08T09:46:28.593Z,12.25
2023-01-08T09:51:34.954Z,12.90
2023-01-08T09:56:37.767Z,11.75
2023-01-08T10:01:41.191Z,11.52
2023-01-08T10:07:13.274Z,11.57
2023-01-08T10:12:16.261Z,11.10
2023-01-08T10:17:34.723Z,14.18
2023-01-08T10:22:36.518Z,10.63
2023-01-08T10:27:46.147Z,11.77
2023-01-08T10:32:54.440Z,12.93
2023-01-08T10:37:56.588Z,10.32
2023-01-08T10:43:07.268Z,10.45
2023-01-08T10:48:17.586Z,12.68
2023-01-08T10:53:28.879Z,11.00
2023-01-08T10:58:42.167Z,10.38
2023-01-08T11:03:48.866Z,10.63
2023-01-08T11:08:53.026Z,10.23
2023-01-08T11:13:57.616Z,10.52
2023-01-08T11:18:59.536Z,12.10
2023-01-08T11:24:14.968Z,11.13
2023-01-08T11:29:24.513Z,11.90
2023-01-08T11:34:34.694Z,12.70
2023-01-08T11:39:38.501Z,14.18
2023-01-08T11:45:07.929Z,13.80
2023-01-08T11:50:44.328Z,11.45
2023-01-08T11:55:54.701Z,12.70
2023-01-08T12:01:15.862Z,11.30
2023-01-08T12:06:44.605Z,13.60
2023-01-08T12:12:16.122Z,24.42
2023-01-08T12:17:55.578Z,14.15
2023-01-08T12:23:06.146Z,11.73
2023-01-08T12:28:26.518Z,10.85
2023-01-08T12:33:38.860Z,10.13
2023-01-08T12:38:44.627Z,18.10
2023-01-08T12:43:52.501Z,13.93
2023-01-08T12:48:56.357Z,15.05
2023-01-08T12:54:22.915Z,14.95
2023-01-08T13:00:03.561Z,17.02
2023-01-08T13:05:13.116Z,14.55
2023-01-08T13:10:40.801Z,12.68
2023-01-08T13:15:42.591Z,12.15
2023-01-08T13:20:56.874Z,15.82
2023-01-08T13:26:01.056Z,13.10
2023-01-08T13:31:24.468Z,12.73
2023-01-08T13:36:31.964Z,13.60
2023-01-08T13:41:37.321Z,14.95
2023-01-08T13:46:40.923Z,10.13
2023-01-08T13:51:45.400Z,12.82
2023-01-08T13:56:53.955Z,13.35
2023-01-08T14:01:57.141Z,16.27
2023-01-08T14:07:14.748Z,14.77
2023-01-08T14:12:25.004Z,12.00
2023-01-08T14:17:32.333Z,14.25
2023-01-08T14:22:35.965Z,18.45
2023-01-08T14:32:43.475Z,20.42
2023-01-08T14:37:45.164Z,31.27
2023-01-08T14:42:50.046Z,19.38
2023-01-08T14:48:21.114Z,28.02
2023-01-08T14:53:36.342Z,13.30
2023-01-08T14:58:40.599Z,12.93
2023-01-08T15:03:44.723Z,13.35
2023-01-08T15:08:46.387Z,13.80
2023-01-08T15:13:49.970Z,12.02
2023-01-08T15:19:02.807Z,13.98
2023-01-08T15:24:06.961Z,14.68
2023-01-08T15:29:19.089Z,18.00
2023-01-08T15:34:21.379Z,19.67
2023-01-08T15:39:23.012Z,20.92
2023-01-08T15:44:25.506Z,14.18
2023-01-08T15:49:27.133Z,16.63
2023-01-08T15:54:28.955Z,17.27
2023-01-08T15:59:31.531Z,15.30
2023-01-08T16:04:33.239Z,19.10
2023-01-08T16:09:34.929Z,24.48
2023-01-08T16:14:38.071Z,21.13
2023-01-08T16:19:39.721Z,25.75
2023-01-08T16:24:41.770Z,17.83
2023-01-08T16:29:43.489Z,20.23
2023-01-08T16:34:45.187Z,18.77
2023-01-08T16:39:46.914Z,18.83
2023-01-08T16:44:48.701Z,23.60
2023-01-08T16:49:51.037Z,26.00
2023-01-08T16:54:52.696Z,19.15
2023-01-08T16:59:54.366Z,20.73
2023-01-08T17:04:56.126Z,26.65
2023-01-08T17:09:57.951Z,15.35
2023-01-08T17:14:59.629Z,26.88
2023-01-08T17:20:01.447Z,23.73
2023-01-08T17:25:03.464Z,14.60
2023-01-08T17:30:05.835Z,17.30
2023-01-08T17:35:08.037Z,14.63
2023-01-08T17:40:10.340Z,14.52
2023-01-08T17:45:12.233Z,15.05
2023-01-08T17:50:14.086Z,13.32
2023-01-08T17:55:15.909Z,12.73
2023-01-08T18:00:18.933Z,19.73
2023-01-08T18:05:20.882Z,22.40
2023-01-08T18:10:22.650Z,18.27
2023-01-08T18:15:24.338Z,14.35
2023-01-08T18:20:26.160Z,17.13
2023-01-08T18:25:27.819Z,14.63
2023-01-08T18:30:30.712Z,17.15
2023-01-08T18:35:33.159Z,14.75
2023-01-08T18:40:34.950Z,16.02
2023-01-08T18:45:38.622Z,16.83
2023-01-08T18:50:41.104Z,16.60
2023-01-08T18:55:42.759Z,16.42
2023-01-08T19:00:44.510Z,16.42
2023-01-08T19:05:46.137Z,16.73
2023-01-08T19:20:53.812Z,15.98
2023-01-08T19:25:55.503Z,17.02
2023-01-08T19:30:58.892Z,15.68
2023-01-08T19:36:03.134Z,16.50
2023-01-08T19:41:05.427Z,17.73
2023-01-08T19:46:07.286Z,17.65
2023-01-08T19:51:10.352Z,15.63
2023-01-08T19:56:13.950Z,17.52
2023-01-08T20:01:18.607Z,18.63
2023-01-08T20:06:23.493Z,17.98
2023-01-08T20:11:25.843Z,17.80
2023-01-08T20:16:29.478Z,16.88
2023-01-08T20:21:32.850Z,20.48
2023-01-08T20:26:36.014Z,16.27
2023-01-08T20:31:39.638Z,14.68
2023-01-08T20:36:43.951Z,14.20
2023-01-08T20:41:55.312Z,13.88
2023-01-08T20:47:05.330Z,14.23
2023-01-08T20:52:07.122Z,14.40
2023-01-08T20:57:09.406Z,14.70
2023-01-08T21:02:11.608Z,14.55
2023-01-08T21:07:13.318Z,14.32
2023-01-08T21:12:15.796Z,16.55
2023-01-08T21:17:17.500Z,15.93
2023-01-08T21:22:19.182Z,14.10
2023-01-08T21:27:20.940Z,14.32
2023-01-08T21:32:22.660Z,12.90
2023-01-08T21:37:24.386Z,12.77
2023-01-08T21:42:44.481Z,14.07
2023-01-08T21:47:46.094Z,15.93
2023-01-08T21:53:06.088Z,14.95
2023-01-08T21:58:08.443Z,20.95
2023-01-08T22:03:10.516Z,17.10
2023-01-08T22:08:18.375Z,16.55
2023-01-08T22:13:20.053Z,18.20
2023-01-08T22:18:21.916Z,21.33
2023-01-08T22:23:23.525Z,17.48
2023-01-08T22:28:26.116Z,19.67
2023-01-08T22:33:27.852Z,24.95
2023-01-08T22:38:29.509Z,22.40
2023-01-08T22:43:31.129Z,26.02
2023-01-08T22:48:32.788Z,25.38
2023-01-08T22:53:35.191Z,22.80
2023-01-08T22:58:37.456Z,27.52
2023-01-08T23:03:45.396Z,25.27
2023-01-08T23:08:47.262Z,26.80
2023-01-08T23:13:51.025Z,25.50
2023-01-08T23:18:54.032Z,22.45
2023-01-08T23:23:56.370Z,21.45
2023-01-08T23:28:59.108Z,27.00
2023-01-08T23:39:02.595Z,32.80
2023-01-08T23:44:07.795Z,28.80
2023-01-08T23:49:10.159Z,31.50
2023-01-08T23:54:12.397Z,35.40
2023-01-08T23:59:14.537Z,36.72
